Airfield :







YOU CAN JOIN US ON...

 
LOGIN :

Register | Disclaimer

   EN    FR    IT 

 









Legend :    VFR   Marginal VFR   IFR   Intensive IFR   Very Intensive IFR
Visi :
Ceiling :
>= 8 km
>= 3000ft
5 to 8 km
1000 to 3000 ft
1500m to 5 km
500 to 1000 ft
800 to 1500m
200 to 500 ft
< 800m
< 200 ft
Symbols :   Thunderstorms  Fog  Heavy snow  Heavy precipitations  Wind > 20 kt






- Airport Elevation : 160 ft
- IATA code : YYG


CYYG - Charlottetown

CURRENT METAR :
  • 151200Z 17014KT 15SM FEW004 SCT016 BKN230 10/10 A2908 RMK SF1SC3CS3 SF TR SLP850 DENSITY ALT 600FT

EXPIRED METARs :
  • 151100Z 17017KT 15SM SCT004 OVC016 11/10 A2910 RMK SF3SC5 PRESFR SLP857 DENSITY ALT 700FT
  • 151000Z 17017KT 15SM FEW005 SCT024 OVC120 11/11 A2911 RMK SF1SC2AC5 SLP862 DENSITY ALT 700FT
  • 150920Z 17017G23KT 15SM SCT002 BKN140 OVC220 11/11 A2912 RMK ST3AC4CI1 SLP864 DENSITY ALT 700FT

TAF TAF CYYG
Valid from the 15 at 12:00 until the 16 at 00:00 UTC


151139Z 1512/1524 17017G27KT P6SM SCT004 OVC015
TEMPO 1512/1514 5SM -DZ BR BKN004
FM151400 20020G35KT P6SM BKN015
TEMPO 1514/1519 BKN025
BECMG 1516/1518 23025G40KT
FM151900 26030G40KT P6SM BKN025 RMK NXT FCST BY 151800Z



MET'MAP, your aeronautical weather chart ! - Copyright ORBIFLY December 2007 - Disclaimer

ORBIFLY MET'MAP TEAM :

Programming & Development : Alexandra Zaïnal
Concept & original design : Baudouin d'Aumeries
Assistance for programming : Marc-Olivier Méhu
Technical & hardware support : Manuel Goepfert

Contact : metmap@orbifly.com




SOURCES & CREDITS :

   NOAA